sensor_id;sensor_type;location;lat;lon;timestamp;pressure;altitude;pressure_sealevel;temperature;humidity
19286;BME280;9776;50.798;6.430;2023-10-19T00:02:06;98093.78;;;12.70;85.08
19286;BME280;9776;50.798;6.430;2023-10-19T00:04:32;98091.94;;;12.70;85.34
19286;BME280;9776;50.798;6.430;2023-10-19T00:07:00;98087.69;;;12.69;85.23
19286;BME280;9776;50.798;6.430;2023-10-19T00:09:26;98085.38;;;12.73;85.13
19286;BME280;9776;50.798;6.430;2023-10-19T00:12:01;98056.91;;;12.75;85.29
19286;BME280;9776;50.798;6.430;2023-10-19T00:14:28;98081.34;;;12.70;85.15
19286;BME280;9776;50.798;6.430;2023-10-19T00:16:56;98093.19;;;12.68;85.26
19286;BME280;9776;50.798;6.430;2023-10-19T00:19:25;98094.66;;;12.64;85.30
19286;BME280;9776;50.798;6.430;2023-10-19T00:21:53;98091.59;;;12.67;85.48
19286;BME280;9776;50.798;6.430;2023-10-19T00:24:27;98099.25;;;12.75;85.40
19286;BME280;9776;50.798;6.430;2023-10-19T00:26:56;98089.38;;;12.82;85.43
19286;BME280;9776;50.798;6.430;2023-10-19T00:29:22;98090.16;;;12.89;85.38
19286;BME280;9776;50.798;6.430;2023-10-19T00:31:58;98094.13;;;12.98;85.01
19286;BME280;9776;50.798;6.430;2023-10-19T00:34:27;98091.88;;;13.01;84.79
19286;BME280;9776;50.798;6.430;2023-10-19T00:36:54;98090.19;;;13.07;84.80
19286;BME280;9776;50.798;6.430;2023-10-19T00:39:21;98090.34;;;13.12;84.73
19286;BME280;9776;50.798;6.430;2023-10-19T00:41:49;98095.22;;;13.15;84.52
19286;BME280;9776;50.798;6.430;2023-10-19T00:44:21;98108.59;;;13.20;84.56
19286;BME280;9776;50.798;6.430;2023-10-19T00:46:53;98109.19;;;13.22;84.54
19286;BME280;9776;50.798;6.430;2023-10-19T00:49:30;98101.59;;;13.26;84.67
19286;BME280;9776;50.798;6.430;2023-10-19T00:51:58;98097.69;;;13.28;84.49
19286;BME280;9776;50.798;6.430;2023-10-19T00:54:31;98090.56;;;13.29;84.87
19286;BME280;9776;50.798;6.430;2023-10-19T00:57:01;98090.38;;;13.30;84.64
19286;BME280;9776;50.798;6.430;2023-10-19T00:59:32;98091.97;;;13.31;84.81
19286;BME280;9776;50.798;6.430;2023-10-19T01:02:04;98093.16;;;13.35;84.80
19286;BME280;9776;50.798;6.430;2023-10-19T01:04:45;98093.16;;;13.35;84.89
19286;BME280;9776;50.798;6.430;2023-10-19T01:07:16;98096.19;;;13.39;84.95
19286;BME280;9776;50.798;6.430;2023-10-19T01:09:47;98090.66;;;13.40;85.02
19286;BME280;9776;50.798;6.430;2023-10-19T01:12:19;98097.72;;;13.46;84.92
19286;BME280;9776;50.798;6.430;2023-10-19T01:15:10;98089.63;;;13.41;84.90
19286;BME280;9776;50.798;6.430;2023-10-19T01:17:40;98097.47;;;13.48;85.02
19286;BME280;9776;50.798;6.430;2023-10-19T01:20:11;98087.03;;;13.53;84.99
19286;BME280;9776;50.798;6.430;2023-10-19T01:22:50;98082.53;;;13.53;84.73
19286;BME280;9776;50.798;6.430;2023-10-19T01:25:19;98086.81;;;13.54;84.89
19286;BME280;9776;50.798;6.430;2023-10-19T01:27:52;98075.63;;;13.52;85.04
19286;BME280;9776;50.798;6.430;2023-10-19T01:30:23;98070.00;;;13.60;85.22
19286;BME280;9776;50.798;6.430;2023-10-19T01:32:49;98073.59;;;13.66;85.11
19286;BME280;9776;50.798;6.430;2023-10-19T01:35:17;98067.34;;;13.79;84.96
19286;BME280;9776;50.798;6.430;2023-10-19T01:37:44;98072.31;;;13.87;84.67
19286;BME280;9776;50.798;6.430;2023-10-19T01:40:11;98066.78;;;13.88;84.60
19286;BME280;9776;50.798;6.430;2023-10-19T01:42:45;98073.00;;;13.82;84.84
19286;BME280;9776;50.798;6.430;2023-10-19T01:45:11;98061.66;;;13.75;84.84
19286;BME280;9776;50.798;6.430;2023-10-19T01:47:37;98063.94;;;13.72;85.37
19286;BME280;9776;50.798;6.430;2023-10-19T01:50:06;98066.47;;;13.67;85.74
19286;BME280;9776;50.798;6.430;2023-10-19T01:52:45;98073.25;;;13.62;85.63
19286;BME280;9776;50.798;6.430;2023-10-19T01:55:12;98071.66;;;13.61;85.77
19286;BME280;9776;50.798;6.430;2023-10-19T01:57:44;98085.47;;;13.63;86.02
19286;BME280;9776;50.798;6.430;2023-10-19T02:00:11;98071.78;;;13.67;86.18
19286;BME280;9776;50.798;6.430;2023-10-19T02:02:48;98072.13;;;13.70;85.94
19286;BME280;9776;50.798;6.430;2023-10-19T02:05:14;98069.03;;;13.73;86.10
19286;BME280;9776;50.798;6.430;2023-10-19T02:07:41;98066.41;;;13.73;86.15
19286;BME280;9776;50.798;6.430;2023-10-19T02:10:07;98062.94;;;13.73;86.24
19286;BME280;9776;50.798;6.430;2023-10-19T02:12:37;98064.56;;;13.74;86.04
19286;BME280;9776;50.798;6.430;2023-10-19T02:15:07;98054.53;;;13.76;86.07
19286;BME280;9776;50.798;6.430;2023-10-19T02:17:34;98062.47;;;13.76;85.92
19286;BME280;9776;50.798;6.430;2023-10-19T02:20:00;98054.53;;;13.76;86.08
19286;BME280;9776;50.798;6.430;2023-10-19T02:22:28;98051.63;;;13.77;86.28
19286;BME280;9776;50.798;6.430;2023-10-19T02:24:54;98045.53;;;13.77;86.06
19286;BME280;9776;50.798;6.430;2023-10-19T02:27:20;98053.25;;;13.78;86.03
19286;BME280;9776;50.798;6.430;2023-10-19T02:29:48;98052.00;;;13.81;86.04
19286;BME280;9776;50.798;6.430;2023-10-19T02:32:15;98047.16;;;13.78;86.19
19286;BME280;9776;50.798;6.430;2023-10-19T02:34:44;98051.78;;;13.82;85.88
19286;BME280;9776;50.798;6.430;2023-10-19T02:37:11;98049.47;;;13.86;85.80
19286;BME280;9776;50.798;6.430;2023-10-19T02:39:37;98053.97;;;13.85;85.73
19286;BME280;9776;50.798;6.430;2023-10-19T02:42:05;98052.81;;;13.81;85.76
19286;BME280;9776;50.798;6.430;2023-10-19T02:44:30;98036.53;;;13.78;85.93
19286;BME280;9776;50.798;6.430;2023-10-19T02:46:58;98044.38;;;13.73;85.80
19286;BME280;9776;50.798;6.430;2023-10-19T02:49:24;98041.22;;;13.64;86.23
19286;BME280;9776;50.798;6.430;2023-10-19T02:51:53;98040.84;;;13.60;86.05
19286;BME280;9776;50.798;6.430;2023-10-19T02:54:19;98035.63;;;13.54;86.06
19286;BME280;9776;50.798;6.430;2023-10-19T02:56:48;98035.50;;;13.49;86.30
19286;BME280;9776;50.798;6.430;2023-10-19T02:59:15;98037.22;;;13.43;86.08
19286;BME280;9776;50.798;6.430;2023-10-19T03:01:42;98026.03;;;13.41;86.33
19286;BME280;9776;50.798;6.430;2023-10-19T03:04:11;98020.00;;;13.34;86.11
19286;BME280;9776;50.798;6.430;2023-10-19T03:06:38;98027.00;;;13.29;86.39
19286;BME280;9776;50.798;6.430;2023-10-19T03:09:06;98032.53;;;13.27;86.09
19286;BME280;9776;50.798;6.430;2023-10-19T03:11:39;98037.66;;;13.22;86.15
19286;BME280;9776;50.798;6.430;2023-10-19T03:14:06;98030.78;;;13.21;86.08
19286;BME280;9776;50.798;6.430;2023-10-19T03:16:34;98028.69;;;13.23;86.31
19286;BME280;9776;50.798;6.430;2023-10-19T03:19:00;98031.47;;;13.28;86.25
19286;BME280;9776;50.798;6.430;2023-10-19T03:21:28;98020.00;;;13.34;86.01
19286;BME280;9776;50.798;6.430;2023-10-19T03:23:58;98021.63;;;13.35;85.96
19286;BME280;9776;50.798;6.430;2023-10-19T03:26:27;98020.38;;;13.38;85.97
19286;BME280;9776;50.798;6.430;2023-10-19T03:28:57;98022.34;;;13.42;85.80
19286;BME280;9776;50.798;6.430;2023-10-19T03:31:27;98024.19;;;13.42;85.94
19286;BME280;9776;50.798;6.430;2023-10-19T03:33:53;98013.81;;;13.40;85.85
19286;BME280;9776;50.798;6.430;2023-10-19T03:36:22;98019.47;;;13.44;85.83
19286;BME280;9776;50.798;6.430;2023-10-19T03:38:50;98013.50;;;13.48;85.74
19286;BME280;9776;50.798;6.430;2023-10-19T03:41:19;98005.66;;;13.53;85.84
19286;BME280;9776;50.798;6.430;2023-10-19T03:43:48;98003.63;;;13.55;85.80
19286;BME280;9776;50.798;6.430;2023-10-19T03:46:17;97997.88;;;13.58;85.79
19286;BME280;9776;50.798;6.430;2023-10-19T03:48:49;97999.47;;;13.59;85.45
19286;BME280;9776;50.798;6.430;2023-10-19T03:51:16;97998.47;;;13.60;85.57
19286;BME280;9776;50.798;6.430;2023-10-19T03:53:43;97990.13;;;13.57;85.73
19286;BME280;9776;50.798;6.430;2023-10-19T03:56:15;97994.41;;;13.58;85.69
19286;BME280;9776;50.798;6.430;2023-10-19T03:58:43;97990.13;;;13.57;85.75
19286;BME280;9776;50.798;6.430;2023-10-19T04:01:15;97990.38;;;13.55;85.61
19286;BME280;9776;50.798;6.430;2023-10-19T04:03:42;97986.53;;;13.51;85.93
19286;BME280;9776;50.798;6.430;2023-10-19T04:06:09;97989.66;;;13.48;85.91
19286;BME280;9776;50.798;6.430;2023-10-19T04:08:39;97992.16;;;13.43;85.98
19286;BME280;9776;50.798;6.430;2023-10-19T04:11:07;97997.91;;;13.40;86.30
19286;BME280;9776;50.798;6.430;2023-10-19T04:13:48;97998.94;;;13.39;86.12
19286;BME280;9776;50.798;6.430;2023-10-19T04:16:19;97998.81;;;13.34;86.40
19286;BME280;9776;50.798;6.430;2023-10-19T04:18:46;97991.44;;;13.36;86.11
19286;BME280;9776;50.798;6.430;2023-10-19T04:21:14;97993.06;;;13.37;86.25
19286;BME280;9776;50.798;6.430;2023-10-19T04:23:40;97998.34;;;13.37;86.22
19286;BME280;9776;50.798;6.430;2023-10-19T04:26:08;98002.19;;;13.41;86.14
19286;BME280;9776;50.798;6.430;2023-10-19T04:28:38;97983.41;;;13.43;85.87
19286;BME280;9776;50.798;6.430;2023-10-19T04:31:12;97990.34;;;13.44;85.90
19286;BME280;9776;50.798;6.430;2023-10-19T04:33:42;97988.50;;;13.44;85.93
19286;BME280;9776;50.798;6.430;2023-10-19T04:36:11;97993.78;;;13.44;85.82
19286;BME280;9776;50.798;6.430;2023-10-19T04:38:38;97998.28;;;13.44;85.58
19286;BME280;9776;50.798;6.430;2023-10-19T04:41:07;97995.38;;;13.45;85.59
19286;BME280;9776;50.798;6.430;2023-10-19T04:43:34;97990.91;;;13.46;85.82
19286;BME280;9776;50.798;6.430;2023-10-19T04:46:05;98003.94;;;13.47;85.61
19286;BME280;9776;50.798;6.430;2023-10-19T04:48:37;97996.34;;;13.51;85.76
19286;BME280;9776;50.798;6.430;2023-10-19T04:51:06;98001.44;;;13.52;85.78
19286;BME280;9776;50.798;6.430;2023-10-19T04:53:34;97997.16;;;13.51;85.49
19286;BME280;9776;50.798;6.430;2023-10-19T04:56:02;97997.16;;;13.51;85.74
19286;BME280;9776;50.798;6.430;2023-10-19T04:58:30;97998.53;;;13.54;85.68
19286;BME280;9776;50.798;6.430;2023-10-19T05:00:56;98002.00;;;13.54;85.71
19286;BME280;9776;50.798;6.430;2023-10-19T05:03:24;98010.97;;;13.53;85.68
19286;BME280;9776;50.798;6.430;2023-10-19T05:05:53;98000.97;;;13.55;85.39
19286;BME280;9776;50.798;6.430;2023-10-19T05:08:19;97997.72;;;13.53;85.58
19286;BME280;9776;50.798;6.430;2023-10-19T05:10:50;97994.28;;;13.53;85.46
19286;BME280;9776;50.798;6.430;2023-10-19T05:13:17;97994.94;;;13.48;85.77
19286;BME280;9776;50.798;6.430;2023-10-19T05:15:44;97991.34;;;13.43;86.02
19286;BME280;9776;50.798;6.430;2023-10-19T05:18:11;97996.88;;;13.41;85.77
19286;BME280;9776;50.798;6.430;2023-10-19T05:20:38;97993.88;;;13.38;86.04
19286;BME280;9776;50.798;6.430;2023-10-19T05:23:08;97995.34;;;13.34;86.29
19286;BME280;9776;50.798;6.430;2023-10-19T05:25:34;97989.03;;;13.35;86.07
19286;BME280;9776;50.798;6.430;2023-10-19T05:28:04;97988.44;;;13.33;86.01
19286;BME280;9776;50.798;6.430;2023-10-19T05:30:30;97986.44;;;13.28;86.27
19286;BME280;9776;50.798;6.430;2023-10-19T05:32:58;97988.88;;;13.30;86.04
19286;BME280;9776;50.798;6.430;2023-10-19T05:35:25;97982.09;;;13.34;86.07
19286;BME280;9776;50.798;6.430;2023-10-19T05:37:52;97984.53;;;13.35;85.71
19286;BME280;9776;50.798;6.430;2023-10-19T05:40:22;97998.81;;;13.34;85.80
19286;BME280;9776;50.798;6.430;2023-10-19T05:42:54;97996.84;;;13.30;86.12
19286;BME280;9776;50.798;6.430;2023-10-19T05:45:21;97993.38;;;13.29;85.94
19286;BME280;9776;50.798;6.430;2023-10-19T05:47:48;98005.44;;;13.25;86.06
19286;BME280;9776;50.798;6.430;2023-10-19T05:50:15;98002.66;;;13.20;86.25
19286;BME280;9776;50.798;6.430;2023-10-19T05:52:41;98001.47;;;13.16;86.46
19286;BME280;9776;50.798;6.430;2023-10-19T05:55:08;98007.38;;;13.18;86.26
19286;BME280;9776;50.798;6.430;2023-10-19T05:57:37;98012.22;;;13.21;86.04
19286;BME280;9776;50.798;6.430;2023-10-19T06:00:07;98018.69;;;13.25;86.10
19286;BME280;9776;50.798;6.430;2023-10-19T06:02:39;98015.59;;;13.28;86.22
19286;BME280;9776;50.798;6.430;2023-10-19T06:05:06;98022.50;;;13.29;86.09
19286;BME280;9776;50.798;6.430;2023-10-19T06:07:32;98023.53;;;13.28;85.77
19286;BME280;9776;50.798;6.430;2023-10-19T06:09:59;98020.44;;;13.31;85.84
19286;BME280;9776;50.798;6.430;2023-10-19T06:12:30;98030.84;;;13.33;85.71
19286;BME280;9776;50.798;6.430;2023-10-19T06:14:58;98018.38;;;13.33;85.68
19286;BME280;9776;50.798;6.430;2023-10-19T06:17:25;98027.38;;;13.32;85.74
19286;BME280;9776;50.798;6.430;2023-10-19T06:19:53;98027.00;;;13.29;85.95
19286;BME280;9776;50.798;6.430;2023-10-19T06:22:20;98024.13;;;13.30;85.90
19286;BME280;9776;50.798;6.430;2023-10-19T06:24:47;98027.56;;;13.31;86.10
19286;BME280;9776;50.798;6.430;2023-10-19T06:27:14;98030.59;;;13.34;85.88
19286;BME280;9776;50.798;6.430;2023-10-19T06:29:41;98038.09;;;13.37;85.79
19286;BME280;9776;50.798;6.430;2023-10-19T06:32:10;98033.53;;;13.44;85.83
19286;BME280;9776;50.798;6.430;2023-10-19T06:34:38;98050.81;;;13.47;85.32
19286;BME280;9776;50.798;6.430;2023-10-19T06:37:05;98034.69;;;13.48;85.33
19286;BME280;9776;50.798;6.430;2023-10-19T06:39:34;98039.34;;;13.53;85.35
19286;BME280;9776;50.798;6.430;2023-10-19T06:42:06;98034.38;;;13.56;85.50
19286;BME280;9776;50.798;6.430;2023-10-19T06:44:35;98046.97;;;13.61;85.56
19286;BME280;9776;50.798;6.430;2023-10-19T06:47:03;98045.72;;;13.63;85.45
19286;BME280;9776;50.798;6.430;2023-10-19T06:49:32;98049.19;;;13.64;85.53
19286;BME280;9776;50.798;6.430;2023-10-19T06:51:59;98043.63;;;13.65;85.26
19286;BME280;9776;50.798;6.430;2023-10-19T06:54:26;98051.38;;;13.67;85.55
19286;BME280;9776;50.798;6.430;2023-10-19T06:56:54;98048.84;;;13.72;85.48
19286;BME280;9776;50.798;6.430;2023-10-19T06:59:21;98047.09;;;13.66;85.50
19286;BME280;9776;50.798;6.430;2023-10-19T07:01:49;98035.47;;;13.67;85.80
19286;BME280;9776;50.798;6.430;2023-10-19T07:04:16;98043.78;;;13.71;85.72
19286;BME280;9776;50.798;6.430;2023-10-19T07:06:44;98047.59;;;13.75;85.75
19286;BME280;9776;50.798;6.430;2023-10-19T07:09:13;98044.94;;;13.75;85.38
19286;BME280;9776;50.798;6.430;2023-10-19T07:11:40;98050.69;;;13.72;85.52
19286;BME280;9776;50.798;6.430;2023-10-19T07:14:10;98052.53;;;13.71;85.84
19286;BME280;9776;50.798;6.430;2023-10-19T07:16:39;98054.72;;;13.74;85.60
19286;BME280;9776;50.798;6.430;2023-10-19T07:19:05;98054.97;;;13.73;85.57
19286;BME280;9776;50.798;6.430;2023-10-19T07:21:32;98056.13;;;13.77;85.90
19286;BME280;9776;50.798;6.430;2023-10-19T07:24:02;98053.53;;;13.88;85.42
19286;BME280;9776;50.798;6.430;2023-10-19T07:26:31;98050.31;;;13.98;85.27
19286;BME280;9776;50.798;6.430;2023-10-19T07:28:59;98037.66;;;14.11;84.84
19286;BME280;9776;50.798;6.430;2023-10-19T07:31:25;98035.66;;;14.25;84.55
19286;BME280;9776;50.798;6.430;2023-10-19T07:33:53;98034.06;;;14.36;84.47
19286;BME280;9776;50.798;6.430;2023-10-19T07:36:21;98041.47;;;14.45;84.42
19286;BME280;9776;50.798;6.430;2023-10-19T07:38:50;98036.72;;;14.47;84.38
19286;BME280;9776;50.798;6.430;2023-10-19T07:41:18;98038.34;;;14.48;84.45
19286;BME280;9776;50.798;6.430;2023-10-19T07:43:45;98035.25;;;14.51;84.32
19286;BME280;9776;50.798;6.430;2023-10-19T07:46:12;98028.78;;;14.59;84.45
19286;BME280;9776;50.798;6.430;2023-10-19T07:48:38;98029.94;;;14.63;84.47
19286;BME280;9776;50.798;6.430;2023-10-19T07:51:05;98027.41;;;14.68;84.19
19286;BME280;9776;50.798;6.430;2023-10-19T07:53:32;98025.66;;;14.73;84.21
19286;BME280;9776;50.798;6.430;2023-10-19T07:55:59;98020.25;;;14.80;83.87
19286;BME280;9776;50.798;6.430;2023-10-19T07:58:27;98015.59;;;14.87;84.00
19286;BME280;9776;50.798;6.430;2023-10-19T08:00:53;98015.56;;;14.99;83.83
19286;BME280;9776;50.798;6.430;2023-10-19T08:03:22;98014.28;;;15.13;83.48
19286;BME280;9776;50.798;6.430;2023-10-19T08:05:48;98031.56;;;15.27;83.06
19286;BME280;9776;50.798;6.430;2023-10-19T08:08:15;98019.06;;;15.39;82.90
19286;BME280;9776;50.798;6.430;2023-10-19T08:10:42;98020.91;;;15.50;82.73
19286;BME280;9776;50.798;6.430;2023-10-19T08:13:09;98027.25;;;15.61;82.63
19286;BME280;9776;50.798;6.430;2023-10-19T08:15:39;98017.38;;;15.61;82.54
19286;BME280;9776;50.798;6.430;2023-10-19T08:18:06;98010.94;;;15.57;82.58
19286;BME280;9776;50.798;6.430;2023-10-19T08:20:33;98018.59;;;15.54;83.07
19286;BME280;9776;50.798;6.430;2023-10-19T08:23:02;98007.94;;;15.54;82.99
19286;BME280;9776;50.798;6.430;2023-10-19T08:25:30;98003.91;;;15.51;83.29
19286;BME280;9776;50.798;6.430;2023-10-19T08:27:57;97997.78;;;15.51;83.19
19286;BME280;9776;50.798;6.430;2023-10-19T08:30:24;97995.94;;;15.51;83.58
19286;BME280;9776;50.798;6.430;2023-10-19T08:32:53;97995.69;;;15.53;83.35
19286;BME280;9776;50.798;6.430;2023-10-19T08:35:21;97991.78;;;15.55;83.14
19286;BME280;9776;50.798;6.430;2023-10-19T08:37:50;97997.19;;;15.60;83.26
19286;BME280;9776;50.798;6.430;2023-10-19T08:40:18;97991.13;;;15.65;83.02
19286;BME280;9776;50.798;6.430;2023-10-19T08:42:47;98005.09;;;15.72;83.03
19286;BME280;9776;50.798;6.430;2023-10-19T08:45:14;97990.22;;;15.87;82.60
19286;BME280;9776;50.798;6.430;2023-10-19T08:47:44;97973.94;;;16.01;81.88
19286;BME280;9776;50.798;6.430;2023-10-19T08:50:15;97974.50;;;16.19;81.34
19286;BME280;9776;50.798;6.430;2023-10-19T08:52:43;97973.38;;;16.32;80.92
19286;BME280;9776;50.798;6.430;2023-10-19T08:55:09;97977.97;;;16.36;80.74
19286;BME280;9776;50.798;6.430;2023-10-19T08:57:39;97979.91;;;16.41;80.45
19286;BME280;9776;50.798;6.430;2023-10-19T09:00:07;97975.47;;;16.46;80.14
19286;BME280;9776;50.798;6.430;2023-10-19T09:02:35;97980.72;;;16.58;80.06
19286;BME280;9776;50.798;6.430;2023-10-19T09:05:05;97980.69;;;16.75;79.11
19286;BME280;9776;50.798;6.430;2023-10-19T09:07:34;97963.06;;;16.90;78.77
19286;BME280;9776;50.798;6.430;2023-10-19T09:10:01;97968.81;;;17.04;78.27
19286;BME280;9776;50.798;6.430;2023-10-19T09:12:31;97967.66;;;17.17;77.54
19286;BME280;9776;50.798;6.430;2023-10-19T09:14:57;97965.34;;;17.52;76.88
19286;BME280;9776;50.798;6.430;2023-10-19T09:17:28;97962.41;;;18.02;75.10
19286;BME280;9776;50.798;6.430;2023-10-19T09:19:55;97960.69;;;18.23;74.11
19286;BME280;9776;50.798;6.430;2023-10-19T09:22:21;97962.22;;;18.13;74.19
19286;BME280;9776;50.798;6.430;2023-10-19T09:24:51;97957.66;;;18.09;74.28
19286;BME280;9776;50.798;6.430;2023-10-19T09:27:19;97963.28;;;18.12;74.10
19286;BME280;9776;50.798;6.430;2023-10-19T09:29:47;97961.88;;;18.37;73.30
19286;BME280;9776;50.798;6.430;2023-10-19T09:32:13;97958.63;;;18.66;72.54
19286;BME280;9776;50.798;6.430;2023-10-19T09:34:41;97959.25;;;18.89;71.71
19286;BME280;9776;50.798;6.430;2023-10-19T09:37:10;97954.97;;;19.45;70.42
19286;BME280;9776;50.798;6.430;2023-10-19T09:39:37;97953.16;;;20.06;68.41
19286;BME280;9776;50.798;6.430;2023-10-19T09:42:07;97949.69;;;20.46;67.05
19286;BME280;9776;50.798;6.430;2023-10-19T09:44:41;97953.28;;;21.00;65.30
19286;BME280;9776;50.798;6.430;2023-10-19T09:47:11;97953.28;;;21.05;64.51
19286;BME280;9776;50.798;6.430;2023-10-19T09:49:40;97952.56;;;20.79;64.96
19286;BME280;9776;50.798;6.430;2023-10-19T09:52:08;97958.75;;;20.65;65.26
19286;BME280;9776;50.798;6.430;2023-10-19T09:54:42;97965.75;;;20.56;65.03
19286;BME280;9776;50.798;6.430;2023-10-19T09:57:17;97972.19;;;20.50;64.96
19286;BME280;9776;50.798;6.430;2023-10-19T09:59:47;97965.78;;;20.46;64.95
19286;BME280;9776;50.798;6.430;2023-10-19T10:02:16;97954.75;;;20.62;64.34
19286;BME280;9776;50.798;6.430;2023-10-19T10:04:43;97945.56;;;20.88;63.52
19286;BME280;9776;50.798;6.430;2023-10-19T10:07:13;97940.16;;;21.09;62.77
19286;BME280;9776;50.798;6.430;2023-10-19T10:09:42;97936.59;;;21.18;62.50
19286;BME280;9776;50.798;6.430;2023-10-19T10:12:19;97931.69;;;21.40;61.87
19286;BME280;9776;50.798;6.430;2023-10-19T10:15:01;97932.16;;;21.47;61.50
19286;BME280;9776;50.798;6.430;2023-10-19T10:17:29;97920.94;;;21.40;61.72
19286;BME280;9776;50.798;6.430;2023-10-19T10:20:30;97924.03;;;21.14;62.15
19286;BME280;9776;50.798;6.430;2023-10-19T10:23:17;97933.19;;;20.98;62.52
19286;BME280;9776;50.798;6.430;2023-10-19T10:25:47;97926.75;;;20.93;62.50
19286;BME280;9776;50.798;6.430;2023-10-19T10:28:16;97930.84;;;20.86;62.52
19286;BME280;9776;50.798;6.430;2023-10-19T10:31:10;97923.91;;;20.65;62.57
19286;BME280;9776;50.798;6.430;2023-10-19T10:33:40;97923.38;;;20.58;63.02
19286;BME280;9776;50.798;6.430;2023-10-19T10:36:07;97923.44;;;20.43;63.28
19286;BME280;9776;50.798;6.430;2023-10-19T10:38:35;97914.34;;;20.28;63.42
19286;BME280;9776;50.798;6.430;2023-10-19T10:41:03;97907.34;;;20.17;63.59
19286;BME280;9776;50.798;6.430;2023-10-19T10:43:31;97907.91;;;20.04;63.91
19286;BME280;9776;50.798;6.430;2023-10-19T10:46:05;97906.31;;;19.93;64.10
19286;BME280;9776;50.798;6.430;2023-10-19T10:48:32;97896.16;;;19.90;64.17
19286;BME280;9776;50.798;6.430;2023-10-19T10:51:01;97896.94;;;19.86;63.96
19286;BME280;9776;50.798;6.430;2023-10-19T10:53:28;97883.53;;;19.86;63.85
19286;BME280;9776;50.798;6.430;2023-10-19T10:55:54;97885.44;;;19.85;63.96
19286;BME280;9776;50.798;6.430;2023-10-19T10:58:21;97890.50;;;19.87;63.97
19286;BME280;9776;50.798;6.430;2023-10-19T11:00:49;97885.16;;;19.87;64.09
19286;BME280;9776;50.798;6.430;2023-10-19T11:03:17;97888.13;;;19.85;64.06
19286;BME280;9776;50.798;6.430;2023-10-19T11:05:43;97884.63;;;19.79;63.73
19286;BME280;9776;50.798;6.430;2023-10-19T11:08:13;97885.97;;;19.77;63.83
19286;BME280;9776;50.798;6.430;2023-10-19T11:10:42;97880.09;;;19.70;64.19
19286;BME280;9776;50.798;6.430;2023-10-19T11:13:11;97887.03;;;19.61;64.32
19286;BME280;9776;50.798;6.430;2023-10-19T11:15:39;97885.13;;;19.51;64.54
19286;BME280;9776;50.798;6.430;2023-10-19T11:18:28;97890.47;;;19.36;64.91
19286;BME280;9776;50.798;6.430;2023-10-19T11:20:55;97886.97;;;19.31;65.16
19286;BME280;9776;50.798;6.430;2023-10-19T11:23:34;97888.25;;;19.18;65.29
19286;BME280;9776;50.798;6.430;2023-10-19T11:26:01;97886.38;;;19.13;65.66
19286;BME280;9776;50.798;6.430;2023-10-19T11:28:29;97877.81;;;19.06;65.96
19286;BME280;9776;50.798;6.430;2023-10-19T11:31:13;97868.69;;;18.97;66.06
19286;BME280;9776;50.798;6.430;2023-10-19T11:33:43;97867.63;;;18.98;66.27
19286;BME280;9776;50.798;6.430;2023-10-19T11:36:10;97865.72;;;18.89;66.39
19286;BME280;9776;50.798;6.430;2023-10-19T11:38:39;97861.94;;;18.85;66.31
19286;BME280;9776;50.798;6.430;2023-10-19T11:41:06;97857.41;;;18.85;66.63
19286;BME280;9776;50.798;6.430;2023-10-19T11:43:33;97856.59;;;18.85;66.43
19286;BME280;9776;50.798;6.430;2023-10-19T11:46:00;97852.06;;;18.85;66.52
19286;BME280;9776;50.798;6.430;2023-10-19T11:48:27;97845.41;;;18.88;66.43
19286;BME280;9776;50.798;6.430;2023-10-19T11:50:55;97855.56;;;18.91;66.45
19286;BME280;9776;50.798;6.430;2023-10-19T11:53:23;97864.09;;;18.83;66.54
19286;BME280;9776;50.798;6.430;2023-10-19T11:55:49;97860.59;;;18.77;66.59
19286;BME280;9776;50.798;6.430;2023-10-19T11:58:17;97865.41;;;18.75;66.73
19286;BME280;9776;50.798;6.430;2023-10-19T12:00:44;97859.50;;;18.73;66.64
19286;BME280;9776;50.798;6.430;2023-10-19T12:03:12;97865.13;;;18.72;66.65
19286;BME280;9776;50.798;6.430;2023-10-19T12:05:39;97853.09;;;18.69;66.54
19286;BME280;9776;50.798;6.430;2023-10-19T12:08:09;97842.13;;;18.70;66.82
19286;BME280;9776;50.798;6.430;2023-10-19T12:10:36;97845.31;;;18.67;66.64
19286;BME280;9776;50.798;6.430;2023-10-19T12:13:04;97844.78;;;18.65;66.84
19286;BME280;9776;50.798;6.430;2023-10-19T12:15:31;97847.16;;;18.62;66.91
19286;BME280;9776;50.798;6.430;2023-10-19T12:17:58;97856.28;;;18.61;67.07
19286;BME280;9776;50.798;6.430;2023-10-19T12:20:25;97861.31;;;18.57;66.87
19286;BME280;9776;50.798;6.430;2023-10-19T12:22:52;97865.56;;;18.53;66.98
19286;BME280;9776;50.798;6.430;2023-10-19T12:25:20;97864.75;;;18.53;67.38
19286;BME280;9776;50.798;6.430;2023-10-19T12:27:54;97870.09;;;18.53;67.26
19286;BME280;9776;50.798;6.430;2023-10-19T12:30:21;97871.72;;;18.54;67.54
19286;BME280;9776;50.798;6.430;2023-10-19T12:32:51;97871.72;;;18.54;67.48
19286;BME280;9776;50.798;6.430;2023-10-19T12:35:18;97870.09;;;18.53;67.88
19286;BME280;9776;50.798;6.430;2023-10-19T12:37:49;97868.50;;;18.52;68.04
19286;BME280;9776;50.798;6.430;2023-10-19T12:40:17;97873.59;;;18.53;68.12
19286;BME280;9776;50.798;6.430;2023-10-19T12:42:55;97872.78;;;18.53;68.25
19286;BME280;9776;50.798;6.430;2023-10-19T12:45:24;97870.06;;;18.48;68.07
19286;BME280;9776;50.798;6.430;2023-10-19T12:47:51;97859.38;;;18.48;67.87
19286;BME280;9776;50.798;6.430;2023-10-19T12:50:18;97862.88;;;18.48;68.04
19286;BME280;9776;50.798;6.430;2023-10-19T12:52:48;97856.97;;;18.46;68.07
19286;BME280;9776;50.798;6.430;2023-10-19T12:55:15;97855.09;;;18.47;68.31
19286;BME280;9776;50.798;6.430;2023-10-19T12:57:42;97858.00;;;18.40;68.48
19286;BME280;9776;50.798;6.430;2023-10-19T13:00:11;97848.34;;;18.29;69.17
19286;BME280;9776;50.798;6.430;2023-10-19T13:02:51;97847.47;;;18.19;69.63
19286;BME280;9776;50.798;6.430;2023-10-19T13:05:26;97842.88;;;18.09;69.92
19286;BME280;9776;50.798;6.430;2023-10-19T13:07:53;97843.09;;;18.02;70.50
19286;BME280;9776;50.798;6.430;2023-10-19T13:10:27;97841.97;;;17.93;71.05
19286;BME280;9776;50.798;6.430;2023-10-19T13:12:59;97830.16;;;17.84;71.57
19286;BME280;9776;50.798;6.430;2023-10-19T13:15:30;97825.03;;;17.78;72.15
19286;BME280;9776;50.798;6.430;2023-10-19T13:17:57;97824.50;;;17.76;72.71
19286;BME280;9776;50.798;6.430;2023-10-19T13:20:25;97811.66;;;17.73;73.05